Time;durP1;ratioP1;P1;durP2;ratioP2;P2;SDS_P1;SDS_P2;PMS_P1;PMS_P2;Temp;Humidity;BMP_temperature;BMP_pressure;BME280_temperature;BME280_humidity;BME280_pressure;Samples;Min_cycle;Max_cycle;Signal;HPM_P1;HPM_P2
2022/04/08 00:01:52;;;;;;;5.13;1.00;;;9.20;99.90;;;;;;5073216;28;20176;-76
2022/04/08 00:04:18;;;;;;;4.80;1.27;;;9.10;99.90;;;;;;5056781;28;20176;-77
2022/04/08 00:06:44;;;;;;;7.23;1.80;;;9.10;99.90;;;;;;5074701;28;20601;-77
2022/04/08 00:09:09;;;;;;;2.40;0.90;;;9.10;99.90;;;;;;5074078;28;20605;-77
2022/04/08 00:11:35;;;;;;;2.03;1.20;;;9.00;99.90;;;;;;5074264;28;20171;-77
2022/04/08 00:14:01;;;;;;;4.60;1.27;;;9.00;99.90;;;;;;5074326;28;20168;-77
2022/04/08 00:16:27;;;;;;;3.67;0.93;;;9.00;99.90;;;;;;5070550;28;20302;-77
2022/04/08 00:18:53;;;;;;;3.45;1.20;;;9.00;99.90;;;;;;5073425;28;20196;-76
2022/04/08 00:21:19;;;;;;;2.95;1.00;;;9.00;99.90;;;;;;5072873;28;20259;-76
2022/04/08 00:23:45;;;;;;;1.87;0.80;;;9.00;99.90;;;;;;5072826;28;20265;-76
2022/04/08 00:26:11;;;;;;;2.83;1.10;;;9.10;99.90;;;;;;5074240;28;20264;-76
2022/04/08 00:28:37;;;;;;;3.58;1.35;;;9.10;99.90;;;;;;5072701;28;20586;-76
2022/04/08 00:31:04;;;;;;;3.10;1.27;;;9.10;99.90;;;;;;5072877;28;20527;-76
2022/04/08 00:33:33;;;;;;;3.25;1.33;;;9.10;99.90;;;;;;5074038;28;21199;-76
2022/04/08 00:35:59;;;;;;;2.85;1.02;;;9.10;99.90;;;;;;5074107;28;20164;-76
2022/04/08 00:38:25;;;;;;;3.85;1.40;;;9.10;99.90;;;;;;5073903;28;20200;-76
2022/04/08 00:40:50;;;;;;;2.23;1.00;;;9.10;99.90;;;;;;5073806;28;20271;-76
2022/04/08 00:43:19;;;;;;;2.83;1.20;;;9.10;99.90;;;;;;5073991;28;20167;-76
2022/04/08 00:45:46;;;;;;;4.13;1.00;;;9.10;99.90;;;;;;5073827;28;20556;-76
2022/04/08 00:48:12;;;;;;;3.58;1.35;;;9.10;99.90;;;;;;5073697;28;20176;-76
2022/04/08 00:50:39;;;;;;;4.33;1.73;;;9.10;99.90;;;;;;5072458;28;20200;-76
2022/04/08 00:53:06;;;;;;;2.67;1.90;;;9.10;99.90;;;;;;5074064;28;20616;-76
2022/04/08 00:55:33;;;;;;;1.92;1.23;;;9.00;99.90;;;;;;5073853;28;20194;-76
2022/04/08 00:58:04;;;;;;;2.60;1.60;;;9.00;99.90;;;;;;5073312;28;20192;-76
2022/04/08 01:00:38;;;;;;;2.80;1.75;;;9.00;99.90;;;;;;5055659;28;20172;-76
2022/04/08 01:03:05;;;;;;;2.30;1.90;;;8.90;99.90;;;;;;5055906;28;20531;-76
2022/04/08 01:05:31;;;;;;;3.60;1.90;;;8.90;99.90;;;;;;5073528;28;20552;-76
2022/04/08 01:07:57;;;;;;;2.50;2.17;;;8.90;99.90;;;;;;5073316;28;20179;-75
2022/04/08 01:10:23;;;;;;;6.33;1.90;;;8.80;99.90;;;;;;5055512;28;20185;-75
2022/04/08 01:12:49;;;;;;;4.53;2.13;;;8.80;99.90;;;;;;5072546;28;21122;-76
2022/04/08 01:15:19;;;;;;;4.35;1.60;;;8.80;99.90;;;;;;5072746;28;20275;-76
2022/04/08 01:17:45;;;;;;;4.65;2.30;;;8.70;99.90;;;;;;5073023;28;20207;-76
2022/04/08 01:20:12;;;;;;;4.10;1.50;;;8.70;99.90;;;;;;5073706;28;20566;-76
2022/04/08 01:22:38;;;;;;;3.10;1.67;;;8.70;99.90;;;;;;5072432;28;20933;-76
2022/04/08 01:25:04;;;;;;;2.77;1.43;;;8.70;99.90;;;;;;5072012;28;20259;-76
2022/04/08 01:27:31;;;;;;;2.83;1.30;;;8.70;99.90;;;;;;5072016;28;20707;-76
2022/04/08 01:29:57;;;;;;;3.83;1.50;;;8.70;99.90;;;;;;5073339;28;20184;-75
2022/04/08 01:32:23;;;;;;;3.00;1.10;;;8.70;99.90;;;;;;5073166;28;20172;-76
2022/04/08 01:34:50;;;;;;;4.70;1.50;;;8.60;99.90;;;;;;5073000;28;20177;-76
2022/04/08 01:37:16;;;;;;;2.08;1.25;;;8.60;99.90;;;;;;5071483;28;20539;-76
2022/04/08 01:39:42;;;;;;;3.55;1.52;;;8.60;99.90;;;;;;5072837;28;20184;-76
2022/04/08 01:42:08;;;;;;;2.90;1.67;;;8.70;99.90;;;;;;5072704;28;20167;-76
2022/04/08 01:44:36;;;;;;;3.65;1.15;;;8.60;99.90;;;;;;5072813;28;20667;-76
2022/04/08 01:47:02;;;;;;;1.90;1.30;;;8.60;99.90;;;;;;5071625;28;20180;-75
2022/04/08 01:49:28;;;;;;;5.03;1.70;;;8.60;99.90;;;;;;5072437;28;20188;-76
2022/04/08 01:51:53;;;;;;;2.47;1.13;;;8.60;99.90;;;;;;5071454;28;20545;-76
2022/04/08 01:54:19;;;;;;;3.33;1.60;;;8.50;99.90;;;;;;5072549;28;20196;-75
2022/04/08 01:56:45;;;;;;;2.88;1.45;;;8.50;99.90;;;;;;5071255;28;20546;-75
2022/04/08 01:59:11;;;;;;;2.07;1.43;;;8.50;99.90;;;;;;5072094;28;20195;-76
2022/04/08 02:01:37;;;;;;;2.73;1.03;;;8.50;99.90;;;;;;5072433;28;20689;-76
2022/04/08 02:04:04;;;;;;;2.03;1.10;;;8.50;99.90;;;;;;5071197;28;20199;-76
2022/04/08 02:06:30;;;;;;;3.42;1.30;;;8.50;99.90;;;;;;5072481;28;20640;-76
2022/04/08 02:08:57;;;;;;;4.82;1.10;;;8.40;99.90;;;;;;5071929;28;20184;-76
2022/04/08 02:11:23;;;;;;;2.50;1.20;;;8.40;99.90;;;;;;5072086;28;20172;-76
2022/04/08 02:13:49;;;;;;;2.85;1.15;;;8.40;99.90;;;;;;5072234;28;20175;-76
2022/04/08 02:16:15;;;;;;;4.53;1.55;;;8.50;99.90;;;;;;5072090;28;20249;-76
2022/04/08 02:18:42;;;;;;;3.33;1.70;;;8.50;99.90;;;;;;5070324;28;20247;-76
2022/04/08 02:21:09;;;;;;;3.55;1.90;;;8.60;99.90;;;;;;5070843;28;20967;-76
2022/04/08 02:23:36;;;;;;;3.92;1.60;;;8.60;99.90;;;;;;5071244;28;20173;-76
2022/04/08 02:26:05;;;;;;;3.13;1.67;;;8.70;99.90;;;;;;5071994;28;20195;-76
2022/04/08 02:28:32;;;;;;;3.25;1.38;;;8.70;99.90;;;;;;5071711;28;20536;-76
2022/04/08 02:33:24;;;;;;;4.55;2.63;;;8.80;99.90;;;;;;5031680;28;20206;-75
2022/04/08 02:35:50;;;;;;;7.57;2.20;;;8.90;99.90;;;;;;5048598;28;20176;-75
2022/04/08 02:38:16;;;;;;;4.13;2.40;;;8.90;99.90;;;;;;5050197;28;20845;-75
2022/04/08 02:40:42;;;;;;;3.93;2.47;;;9.00;99.90;;;;;;5051414;28;20568;-75
2022/04/08 02:43:07;;;;;;;2.60;1.73;;;9.00;99.90;;;;;;5070887;28;20189;-75
2022/04/08 02:45:33;;;;;;;4.03;2.70;;;9.00;99.90;;;;;;5071841;28;20175;-75
2022/04/08 02:47:59;;;;;;;3.47;3.00;;;9.00;99.90;;;;;;5071306;28;20206;-76
2022/04/08 02:50:24;;;;;;;3.70;3.00;;;9.00;99.90;;;;;;5071398;28;20176;-75
2022/04/08 02:52:50;;;;;;;5.53;3.00;;;9.00;99.90;;;;;;5071523;28;20184;-75
2022/04/08 02:55:16;;;;;;;2.60;2.40;;;9.00;99.90;;;;;;5071535;28;20160;-75
2022/04/08 02:57:46;;;;;;;4.07;2.50;;;9.00;99.90;;;;;;5069855;28;20226;-75
2022/04/08 03:00:19;;;;;;;3.05;2.15;;;9.00;99.90;;;;;;5070102;28;20209;-75
2022/04/08 03:02:46;;;;;;;3.88;2.70;;;9.00;99.90;;;;;;5071300;28;20191;-75
2022/04/08 03:05:12;;;;;;;2.40;2.00;;;9.00;99.90;;;;;;5071409;28;20171;-75
2022/04/08 03:07:38;;;;;;;2.42;1.70;;;9.00;99.90;;;;;;5071164;28;20200;-75
2022/04/08 03:10:06;;;;;;;3.53;1.67;;;9.00;99.90;;;;;;5069817;28;20207;-75
2022/04/08 03:12:32;;;;;;;3.50;1.92;;;9.00;99.90;;;;;;5071220;28;20213;-76
2022/04/08 03:14:59;;;;;;;2.67;1.88;;;9.00;99.90;;;;;;5053251;28;20188;-75
2022/04/08 03:17:25;;;;;;;2.75;1.70;;;9.00;99.90;;;;;;5070877;28;20975;-74
2022/04/08 03:19:51;;;;;;;2.45;1.50;;;9.00;99.90;;;;;;5071263;28;20196;-75
2022/04/08 03:22:20;;;;;;;2.15;1.83;;;9.00;99.90;;;;;;5069908;28;20644;-76
2022/04/08 03:24:47;;;;;;;3.03;1.73;;;9.00;99.90;;;;;;5069991;28;20565;-75
2022/04/08 03:27:13;;;;;;;3.90;1.90;;;9.00;99.90;;;;;;5071050;28;20578;-76
2022/04/08 03:29:39;;;;;;;6.18;1.88;;;9.00;99.90;;;;;;5070946;28;20180;-75
2022/04/08 03:32:05;;;;;;;2.57;1.67;;;9.00;99.90;;;;;;5079034;28;20207;-76
2022/04/08 03:34:31;;;;;;;1.90;1.45;;;9.10;99.90;;;;;;5091972;28;20171;-76
2022/04/08 03:36:57;;;;;;;3.08;1.50;;;9.10;99.90;;;;;;5095520;28;20223;-75
2022/04/08 03:39:23;;;;;;;2.88;2.03;;;9.10;99.90;;;;;;5095135;28;20229;-76
2022/04/08 03:41:49;;;;;;;3.53;1.20;;;9.10;99.90;;;;;;5094169;28;20183;-76
2022/04/08 03:44:15;;;;;;;2.17;1.40;;;9.20;99.90;;;;;;5095432;28;20292;-76
2022/04/08 03:46:41;;;;;;;1.70;1.40;;;9.20;99.90;;;;;;5095531;28;20167;-75
2022/04/08 03:49:14;;;;;;;4.28;1.90;;;9.20;99.90;;;;;;5093987;28;20164;-75
2022/04/08 03:51:44;;;;;;;3.38;1.65;;;9.20;99.90;;;;;;5094999;28;20558;-75
2022/04/08 03:54:11;;;;;;;1.90;1.70;;;9.20;99.90;;;;;;5093958;28;20167;-76
2022/04/08 03:56:37;;;;;;;3.17;2.50;;;9.30;99.90;;;;;;5094115;28;20665;-76
2022/04/08 03:59:03;;;;;;;2.72;1.95;;;9.30;99.90;;;;;;5094993;28;20266;-76
2022/04/08 04:01:29;;;;;;;5.90;2.58;;;9.30;99.90;;;;;;5093754;28;20270;-75
2022/04/08 04:03:55;;;;;;;3.50;2.65;;;9.40;99.90;;;;;;5095054;28;20258;-75
2022/04/08 04:06:21;;;;;;;4.67;3.17;;;9.40;99.90;;;;;;5094108;28;20242;-75
2022/04/08 04:08:47;;;;;;;4.38;2.85;;;9.50;99.90;;;;;;5094822;28;20172;-75
2022/04/08 04:11:16;;;;;;;3.97;3.20;;;9.50;99.90;;;;;;5094681;28;20239;-75
2022/04/08 04:13:43;;;;;;;3.10;2.80;;;9.50;99.90;;;;;;5094822;28;20246;-75
2022/04/08 04:16:09;;;;;;;3.90;2.97;;;9.60;99.90;;;;;;5076856;28;20195;-75
2022/04/08 04:18:35;;;;;;;5.85;3.15;;;9.60;99.90;;;;;;5093158;28;20237;-75
2022/04/08 04:21:01;;;;;;;7.63;3.45;;;9.60;99.90;;;;;;5093501;28;20167;-75
2022/04/08 04:23:27;;;;;;;5.18;2.95;;;9.60;99.90;;;;;;5083296;28;20245;-76
2022/04/08 04:25:53;;;;;;;4.10;2.80;;;9.60;99.90;;;;;;5091695;28;20637;-75
2022/04/08 04:28:19;;;;;;;4.33;2.90;;;9.60;99.90;;;;;;5094678;28;20168;-75
2022/04/08 04:30:44;;;;;;;6.00;3.30;;;9.70;99.90;;;;;;5094355;28;20590;-75
2022/04/08 04:33:11;;;;;;;4.17;3.00;;;9.70;99.90;;;;;;5093076;28;21175;-75
2022/04/08 04:35:38;;;;;;;8.65;3.60;;;9.70;99.90;;;;;;5094356;28;20160;-75
2022/04/08 04:38:04;;;;;;;7.13;3.75;;;9.80;99.90;;;;;;5094091;28;20207;-75
2022/04/08 04:40:30;;;;;;;3.28;2.97;;;9.80;99.90;;;;;;5093197;28;20187;-76
2022/04/08 04:42:56;;;;;;;3.80;3.17;;;9.80;99.90;;;;;;5094273;28;20233;-75
2022/04/08 04:45:22;;;;;;;4.93;2.80;;;9.80;99.90;;;;;;5092439;28;20217;-75
2022/04/08 04:47:48;;;;;;;4.40;2.92;;;9.80;99.90;;;;;;5092930;28;20168;-75
2022/04/08 04:50:14;;;;;;;5.87;2.90;;;9.80;99.90;;;;;;5092967;28;20179;-75
2022/04/08 04:52:40;;;;;;;5.60;5.10;;;9.80;99.90;;;;;;5094411;28;20605;-75
2022/04/08 04:55:06;;;;;;;4.60;3.00;;;9.80;99.90;;;;;;5093042;28;20199;-75
2022/04/08 04:57:32;;;;;;;6.00;2.70;;;9.70;99.90;;;;;;5092602;28;20202;-75
2022/04/08 04:59:58;;;;;;;5.32;3.25;;;9.70;99.90;;;;;;5092660;28;20210;-75
2022/04/08 05:02:24;;;;;;;4.03;2.77;;;9.70;99.90;;;;;;5094559;28;20179;-75
2022/04/08 05:04:49;;;;;;;3.37;2.80;;;9.60;99.90;;;;;;5093979;28;20615;-75
2022/04/08 05:07:15;;;;;;;3.60;2.87;;;9.60;99.90;;;;;;5092479;28;20187;-75
2022/04/08 05:09:41;;;;;;;4.73;2.90;;;9.50;99.90;;;;;;5093625;28;20171;-76
2022/04/08 05:12:08;;;;;;;6.70;4.35;;;9.50;99.90;;;;;;5093647;28;20207;-75
2022/04/08 05:14:35;;;;;;;4.95;3.35;;;9.50;99.90;;;;;;5093907;28;20195;-76
2022/04/08 05:17:00;;;;;;;4.95;3.58;;;9.50;99.90;;;;;;5093628;28;20195;-76
2022/04/08 05:19:26;;;;;;;7.73;3.87;;;9.50;99.90;;;;;;5093162;28;20170;-76
2022/04/08 05:21:53;;;;;;;3.40;3.07;;;9.50;99.90;;;;;;5094315;28;20598;-76
2022/04/08 05:24:19;;;;;;;3.97;3.60;;;9.50;99.90;;;;;;5093615;28;20168;-76
2022/04/08 05:26:45;;;;;;;3.70;3.25;;;9.60;99.90;;;;;;5091858;28;20168;-75
2022/04/08 05:29:11;;;;;;;4.22;3.83;;;9.50;99.90;;;;;;5091873;28;20198;-75
2022/04/08 05:31:36;;;;;;;4.90;3.10;;;9.60;99.90;;;;;;5093083;28;20203;-76
2022/04/08 05:34:02;;;;;;;4.40;2.53;;;9.60;99.90;;;;;;5093370;28;20171;-76
2022/04/08 05:36:28;;;;;;;5.10;3.17;;;9.60;99.90;;;;;;5092058;28;20167;-76
2022/04/08 05:38:54;;;;;;;3.50;2.43;;;9.60;99.90;;;;;;5093059;28;20659;-76
2022/04/08 05:41:20;;;;;;;3.67;3.10;;;9.50;99.90;;;;;;5093181;28;20938;-76
2022/04/08 05:43:46;;;;;;;4.47;4.05;;;9.50;99.90;;;;;;5092535;28;20698;-76
2022/04/08 05:46:12;;;;;;;6.00;4.27;;;9.50;99.90;;;;;;5092456;28;20689;-76
2022/04/08 05:48:38;;;;;;;4.78;3.05;;;9.40;99.90;;;;;;5091657;28;20607;-76
2022/04/08 05:51:03;;;;;;;4.33;3.10;;;9.50;99.90;;;;;;5091420;28;20530;-76
2022/04/08 05:53:29;;;;;;;5.87;2.77;;;9.60;99.90;;;;;;5091832;28;20305;-76
2022/04/08 05:55:56;;;;;;;7.27;3.10;;;9.60;99.90;;;;;;5091692;28;20184;-76
2022/04/08 05:58:21;;;;;;;3.25;2.25;;;9.70;99.90;;;;;;5091629;28;20254;-76
2022/04/08 06:00:47;;;;;;;4.10;2.13;;;9.80;99.90;;;;;;5092678;28;20257;-76
2022/04/08 06:03:13;;;;;;;2.90;2.57;;;9.80;99.90;;;;;;5092719;28;20179;-76
2022/04/08 06:05:39;;;;;;;3.50;2.43;;;9.90;99.90;;;;;;5092797;28;20171;-76
2022/04/08 06:08:05;;;;;;;4.30;2.30;;;10.00;99.90;;;;;;5092403;28;20172;-75
2022/04/08 06:10:30;;;;;;;5.78;3.28;;;10.10;99.90;;;;;;5092526;28;21113;-75
2022/04/08 06:12:57;;;;;;;4.30;2.43;;;10.10;99.90;;;;;;5091171;28;20237;-76
2022/04/08 06:15:23;;;;;;;4.18;2.60;;;10.20;99.90;;;;;;5092656;28;20170;-76
2022/04/08 06:17:49;;;;;;;4.65;3.58;;;10.30;99.90;;;;;;5075047;28;20736;-76
2022/04/08 06:20:18;;;;;;;3.83;3.50;;;10.40;99.90;;;;;;5072028;28;20200;-76
2022/04/08 06:22:51;;;;;;;5.20;3.10;;;10.40;99.90;;;;;;5072078;28;20599;-77
2022/04/08 06:25:18;;;;;;;3.10;2.10;;;10.60;99.90;;;;;;5072131;28;20165;-77
2022/04/08 06:27:53;;;;;;;4.10;3.13;;;10.70;99.90;;;;;;5074963;28;21067;-77
2022/04/08 06:30:19;;;;;;;3.65;2.20;;;10.80;99.90;;;;;;5075203;28;20176;-76
2022/04/08 06:32:45;;;;;;;4.67;2.70;;;10.90;99.90;;;;;;5081304;28;21302;-77
2022/04/08 06:35:12;;;;;;;3.23;2.07;;;11.10;99.90;;;;;;5080166;28;20175;-77
2022/04/08 06:37:38;;;;;;;8.05;2.30;;;11.20;99.90;;;;;;5082049;28;20630;-77
2022/04/08 06:40:10;;;;;;;4.70;2.13;;;11.40;99.90;;;;;;5058054;28;20309;-76
2022/04/08 06:42:37;;;;;;;3.17;1.95;;;11.50;99.90;;;;;;5081568;28;20971;-75
2022/04/08 06:45:04;;;;;;;5.93;1.92;;;11.60;99.90;;;;;;5080605;28;20628;-76
2022/04/08 06:47:30;;;;;;;3.08;1.70;;;11.80;99.90;;;;;;5092138;28;20763;-75
2022/04/08 06:50:00;;;;;;;3.75;2.17;;;11.90;99.90;;;;;;5092292;28;20175;-75
2022/04/08 06:52:27;;;;;;;4.55;1.70;;;12.00;99.90;;;;;;5090562;28;20600;-75
2022/04/08 06:54:53;;;;;;;3.17;1.77;;;12.00;99.90;;;;;;5079339;28;20176;-75
2022/04/08 06:57:19;;;;;;;3.30;1.60;;;12.10;99.90;;;;;;5071386;28;20630;-75
2022/04/08 06:59:44;;;;;;;3.93;1.80;;;12.10;99.90;;;;;;5072434;28;20628;-75
2022/04/08 07:02:11;;;;;;;3.30;2.08;;;12.20;99.90;;;;;;5070205;28;20744;-76
2022/04/08 07:04:37;;;;;;;3.47;1.90;;;12.10;99.90;;;;;;5082694;28;20180;-75
2022/04/08 07:07:06;;;;;;;2.87;1.80;;;12.10;99.90;;;;;;5085604;28;20292;-75
2022/04/08 07:09:33;;;;;;;4.85;1.60;;;12.30;99.90;;;;;;5084162;28;20175;-77
2022/04/08 07:12:00;;;;;;;3.08;1.67;;;12.80;99.90;;;;;;5083783;28;20203;-76
2022/04/08 07:14:27;;;;;;;3.25;1.27;;;13.20;99.90;;;;;;5080921;28;20167;-75
2022/04/08 07:17:00;;;;;;;2.10;1.60;;;13.50;99.90;;;;;;5077073;28;20558;-75
2022/04/08 07:19:27;;;;;;;7.20;1.30;;;13.90;99.90;;;;;;5070071;28;20692;-75
2022/04/08 07:21:53;;;;;;;2.27;1.20;;;14.10;99.90;;;;;;5071348;28;20673;-76
2022/04/08 07:24:18;;;;;;;2.87;1.50;;;14.20;99.90;;;;;;5082785;28;20207;-77
2022/04/08 07:26:48;;;;;;;5.63;1.93;;;14.20;99.90;;;;;;5067105;28;20585;-76
2022/04/08 07:29:18;;;;;;;3.60;1.70;;;14.20;99.90;;;;;;5061927;28;20200;-77
2022/04/08 07:31:43;;;;;;;3.73;1.60;;;14.20;99.90;;;;;;5077891;28;20667;-77
2022/04/08 07:34:13;;;;;;;2.30;1.60;;;14.10;99.90;;;;;;5072303;28;20187;-76
2022/04/08 07:36:39;;;;;;;1.90;1.20;;;14.00;99.90;;;;;;5051654;28;20191;-76
2022/04/08 07:39:04;;;;;;;2.83;1.73;;;13.80;99.90;;;;;;5078391;28;20200;-75
2022/04/08 07:41:30;;;;;;;3.97;1.20;;;13.70;99.90;;;;;;5055896;28;20192;-74
2022/04/08 07:44:04;;;;;;;2.00;1.30;;;13.60;99.90;;;;;;5051851;28;20596;-75
2022/04/08 07:46:29;;;;;;;1.95;1.00;;;13.40;99.90;;;;;;5049401;28;20628;-76
2022/04/08 07:48:56;;;;;;;3.50;1.20;;;13.30;99.90;;;;;;5076539;28;20229;-75
2022/04/08 07:51:30;;;;;;;2.77;1.50;;;13.20;99.90;;;;;;5054794;28;20275;-76
2022/04/08 07:53:56;;;;;;;3.17;1.60;;;13.10;99.90;;;;;;5080621;28;20581;-76
2022/04/08 07:56:22;;;;;;;3.00;1.50;;;13.00;99.90;;;;;;5082844;28;20164;-75
2022/04/08 07:58:48;;;;;;;2.78;1.40;;;13.00;99.90;;;;;;5076735;28;20253;-76
2022/04/08 08:01:18;;;;;;;3.10;1.63;;;12.90;99.90;;;;;;5093352;28;20196;-76
2022/04/08 08:03:50;;;;;;;3.20;1.77;;;12.90;99.90;;;;;;5076741;28;20589;-75
2022/04/08 08:06:16;;;;;;;2.33;1.70;;;12.90;99.90;;;;;;5076185;28;20226;-76
2022/04/08 08:08:46;;;;;;;3.75;1.13;;;12.90;99.90;;;;;;5076237;28;21207;-77
2022/04/08 08:11:13;;;;;;;2.42;1.15;;;12.90;99.90;;;;;;5079217;28;20193;-76
2022/04/08 08:13:42;;;;;;;3.38;1.15;;;12.90;99.90;;;;;;5064473;28;20165;-77
2022/04/08 08:16:09;;;;;;;2.50;1.13;;;12.90;99.90;;;;;;5070871;28;20547;-76
2022/04/08 08:18:34;;;;;;;2.60;1.20;;;12.90;99.90;;;;;;5070618;28;20207;-77
2022/04/08 08:21:00;;;;;;;3.10;1.10;;;12.90;99.90;;;;;;5071401;28;20164;-76
2022/04/08 08:23:27;;;;;;;3.30;1.37;;;12.90;99.90;;;;;;5074491;28;20207;-76
2022/04/08 08:25:53;;;;;;;3.45;1.25;;;12.90;99.90;;;;;;5073333;28;20616;-77
2022/04/08 08:28:19;;;;;;;2.67;1.38;;;13.00;99.90;;;;;;5074134;28;20208;-76
2022/04/08 08:30:45;;;;;;;4.20;1.77;;;13.00;99.90;;;;;;5074415;28;20233;-77
2022/04/08 08:33:11;;;;;;;5.60;1.50;;;13.00;99.90;;;;;;5072786;28;20205;-77
2022/04/08 08:35:37;;;;;;;3.43;1.33;;;13.10;99.90;;;;;;5073078;28;20314;-76
2022/04/08 08:38:03;;;;;;;3.90;1.33;;;13.10;99.90;;;;;;5072627;28;20200;-76
2022/04/08 08:40:33;;;;;;;3.10;1.00;;;13.20;99.90;;;;;;5074105;28;20573;-76
2022/04/08 08:43:00;;;;;;;2.95;1.00;;;13.20;99.90;;;;;;5083060;23;20939;-78
2022/04/08 08:45:32;;;;;;;2.97;1.00;;;13.20;99.90;;;;;;5077216;28;20531;-79
2022/04/08 08:48:03;;;;;;;1.70;0.95;;;13.20;99.90;;;;;;5076300;28;20165;-78
2022/04/08 08:50:29;;;;;;;4.65;1.02;;;13.30;99.90;;;;;;5069852;28;20164;-78
2022/04/08 08:52:56;;;;;;;2.22;1.65;;;13.30;99.90;;;;;;5083811;28;20662;-78
2022/04/08 08:55:22;;;;;;;1.60;0.90;;;13.30;99.90;;;;;;5079429;28;20176;-78
2022/04/08 08:57:49;;;;;;;2.73;1.43;;;13.30;99.90;;;;;;5058662;28;20200;-78
2022/04/08 09:00:18;;;;;;;3.10;1.10;;;13.40;99.90;;;;;;5074967;28;20629;-78
2022/04/08 09:02:45;;;;;;;2.40;0.90;;;13.40;99.90;;;;;;5075557;28;20188;-79
2022/04/08 09:05:20;;;;;;;2.33;0.90;;;13.50;99.90;;;;;;5074795;28;20157;-79
2022/04/08 09:08:05;;;;;;;2.88;1.75;;;13.50;99.90;;;;;;5073678;28;21084;-80
2022/04/08 09:10:36;;;;;;;4.32;1.45;;;13.60;99.90;;;;;;5073142;28;20179;-79
2022/04/08 09:13:04;;;;;;;2.35;1.00;;;13.70;99.90;;;;;;5074995;28;20194;-78
2022/04/08 09:15:31;;;;;;;4.97;1.63;;;13.70;99.90;;;;;;5075706;28;20651;-77
2022/04/08 09:18:10;;;;;;;4.28;1.52;;;13.90;99.90;;;;;;5073017;28;20283;-79
2022/04/08 09:20:40;;;;;;;2.95;1.10;;;14.00;99.90;;;;;;5073076;28;20168;-79
2022/04/08 09:23:07;;;;;;;3.93;1.57;;;14.00;99.90;;;;;;5079678;28;20616;-78
2022/04/08 09:25:33;;;;;;;3.07;1.40;;;14.10;99.90;;;;;;5093249;28;20585;-79
2022/04/08 09:28:12;;;;;;;2.40;1.00;;;14.10;99.90;;;;;;5093113;28;20632;-79
2022/04/08 09:30:39;;;;;;;3.83;1.50;;;14.20;99.90;;;;;;5084952;28;20167;-78
2022/04/08 09:33:19;;;;;;;2.58;1.05;;;14.30;99.90;;;;;;5072470;28;20613;-80
2022/04/08 09:35:46;;;;;;;3.90;1.33;;;14.30;99.90;;;;;;5072964;28;20184;-78
2022/04/08 09:38:16;;;;;;;2.42;1.13;;;14.40;99.90;;;;;;5071259;28;20645;-78
2022/04/08 09:40:42;;;;;;;2.60;1.50;;;14.40;99.90;;;;;;5072934;28;20165;-78
2022/04/08 09:43:08;;;;;;;2.00;1.10;;;14.40;99.90;;;;;;5072488;28;20615;-78
2022/04/08 09:45:35;;;;;;;2.63;1.60;;;14.50;99.90;;;;;;5078043;28;20894;-79
2022/04/08 09:48:02;;;;;;;3.63;1.50;;;14.50;99.90;;;;;;5091300;28;21127;-78
2022/04/08 09:50:28;;;;;;;3.58;2.28;;;14.40;99.90;;;;;;5091522;28;20581;-79
2022/04/08 09:52:54;;;;;;;3.77;2.03;;;14.40;99.90;;;;;;5091532;28;20195;-78
2022/04/08 09:55:22;;;;;;;3.87;1.43;;;14.40;99.90;;;;;;5092779;28;20668;-78
2022/04/08 09:57:51;;;;;;;3.27;2.10;;;14.40;99.90;;;;;;5092891;28;21202;-78
2022/04/08 10:00:18;;;;;;;6.28;1.80;;;14.40;99.90;;;;;;5092652;28;20620;-79
2022/04/08 10:02:49;;;;;;;6.30;3.07;;;14.40;99.90;;;;;;5090476;28;20199;-79
2022/04/08 10:05:15;;;;;;;5.15;2.30;;;14.40;99.90;;;;;;5091352;28;21104;-79
2022/04/08 10:07:44;;;;;;;4.70;2.67;;;14.40;99.90;;;;;;5091201;28;20226;-79
2022/04/08 10:10:36;;;;;;;3.50;1.80;;;14.40;99.90;;;;;;5082209;28;20274;-79
2022/04/08 10:13:13;;;;;;;3.27;2.33;;;14.30;99.90;;;;;;5090264;28;20619;-80
2022/04/08 10:15:44;;;;;;;9.47;4.17;;;14.30;99.90;;;;;;5089838;28;20600;-79
2022/04/08 10:18:10;;;;;;;6.67;3.27;;;14.30;99.90;;;;;;5090614;28;20636;-79
2022/04/08 10:20:38;;;;;;;9.37;4.20;;;14.30;99.90;;;;;;5091378;28;20576;-79
2022/04/08 10:23:11;;;;;;;5.83;3.27;;;14.40;99.90;;;;;;5091234;28;20290;-80
2022/04/08 10:25:41;;;;;;;4.40;2.33;;;14.40;99.90;;;;;;5084529;28;20935;-79
2022/04/08 10:28:08;;;;;;;2.30;2.00;;;14.40;99.90;;;;;;5087256;28;20954;-79
2022/04/08 10:30:42;;;;;;;4.90;2.33;;;14.30;99.90;;;;;;5091438;28;20613;-80
2022/04/08 10:33:08;;;;;;;4.20;2.50;;;14.30;99.90;;;;;;5096832;28;20612;-79
2022/04/08 10:35:37;;;;;;;4.77;2.80;;;14.30;99.90;;;;;;5093685;28;20638;-80
2022/04/08 10:38:05;;;;;;;3.15;1.90;;;14.20;99.90;;;;;;5091411;28;20629;-79
2022/04/08 10:40:36;;;;;;;4.90;2.60;;;14.10;99.90;;;;;;5095492;28;20175;-80
2022/04/08 10:43:07;;;;;;;6.05;2.47;;;14.10;99.90;;;;;;5094650;28;20277;-80
2022/04/08 10:45:34;;;;;;;3.43;2.13;;;14.10;99.90;;;;;;5090306;28;20774;-79
2022/04/08 10:48:13;;;;;;;3.75;2.70;;;14.00;99.90;;;;;;5089991;28;20602;-79
2022/04/08 10:50:40;;;;;;;3.38;2.60;;;14.00;99.90;;;;;;5092169;28;20207;-79
2022/04/08 10:53:13;;;;;;;5.22;3.20;;;13.90;99.90;;;;;;5091904;28;20268;-79
2022/04/08 10:55:53;;;;;;;3.17;2.73;;;13.80;99.90;;;;;;5091853;28;20171;-78
2022/04/08 10:58:35;;;;;;;5.80;3.38;;;13.80;99.90;;;;;;5091558;28;20612;-79
2022/04/08 11:01:12;;;;;;;3.90;2.83;;;13.80;99.90;;;;;;5091616;28;20172;-79
2022/04/08 11:03:41;;;;;;;5.00;3.80;;;13.70;99.90;;;;;;5091423;28;20183;-79
2022/04/08 11:06:08;;;;;;;3.35;2.60;;;13.70;99.90;;;;;;5091782;28;20669;-79
2022/04/08 11:08:34;;;;;;;5.18;3.15;;;13.60;99.90;;;;;;5091291;28;20506;-79
2022/04/08 11:11:00;;;;;;;5.75;3.35;;;13.50;99.90;;;;;;5091488;28;20178;-79
2022/04/08 11:13:26;;;;;;;4.72;3.00;;;13.50;99.90;;;;;;5090159;28;20543;-79
2022/04/08 11:15:53;;;;;;;7.23;3.70;;;13.40;99.90;;;;;;5091495;28;20171;-78
2022/04/08 11:18:19;;;;;;;4.70;3.53;;;13.40;99.90;;;;;;5090983;28;20613;-79
2022/04/08 11:20:49;;;;;;;4.55;3.47;;;13.40;99.90;;;;;;5091467;28;20255;-78
2022/04/08 11:23:27;;;;;;;3.75;2.70;;;13.40;99.90;;;;;;5073335;28;20187;-79
2022/04/08 11:25:53;;;;;;;4.60;2.72;;;13.40;99.90;;;;;;5090711;28;20175;-80
2022/04/08 11:28:22;;;;;;;3.60;2.87;;;13.50;99.90;;;;;;5091645;28;20171;-80
2022/04/08 11:30:57;;;;;;;2.70;2.50;;;13.50;99.90;;;;;;5091703;28;20580;-81
2022/04/08 11:33:24;;;;;;;3.40;3.08;;;13.60;99.90;;;;;;5090500;28;20195;-81
2022/04/08 11:35:58;;;;;;;5.25;3.22;;;13.60;99.90;;;;;;5091592;28;20585;-80
2022/04/08 11:38:24;;;;;;;6.00;2.90;;;13.60;99.90;;;;;;5091718;28;20196;-81
2022/04/08 11:40:51;;;;;;;5.07;2.87;;;13.70;99.90;;;;;;5091627;28;20178;-81
2022/04/08 11:43:19;;;;;;;4.45;3.60;;;13.70;99.90;;;;;;5090907;28;21052;-81
2022/04/08 11:45:46;;;;;;;4.10;3.15;;;13.70;99.90;;;;;;5091521;28;20163;-80
2022/04/08 11:48:18;;;;;;;4.78;3.00;;;13.70;99.90;;;;;;5091210;28;20174;-81
2022/04/08 11:50:45;;;;;;;6.30;3.15;;;13.70;99.90;;;;;;5091095;28;20171;-80
2022/04/08 11:53:22;;;;;;;3.00;2.70;;;13.70;99.90;;;;;;5091107;28;20599;-81
2022/04/08 11:56:01;;;;;;;4.60;3.25;;;13.70;99.90;;;;;;5091776;28;20262;-80
2022/04/08 11:58:28;;;;;;;9.85;3.25;;;13.60;99.90;;;;;;5094793;28;20268;-80
2022/04/08 12:00:54;;;;;;;4.78;3.33;;;13.60;99.90;;;;;;5095029;28;20159;-80
2022/04/08 12:03:28;;;;;;;6.40;2.78;;;13.60;99.90;;;;;;5095164;28;20174;-80
2022/04/08 12:05:54;;;;;;;6.15;2.88;;;13.60;99.90;;;;;;5095352;28;20327;-80
2022/04/08 12:08:20;;;;;;;4.27;3.47;;;13.70;99.90;;;;;;5094679;28;20167;-81
2022/04/08 12:10:54;;;;;;;4.05;3.35;;;13.70;99.90;;;;;;5095219;28;20929;-80
2022/04/08 12:13:22;;;;;;;6.83;3.50;;;13.70;99.90;;;;;;5094634;28;20226;-80
2022/04/08 12:15:49;;;;;;;7.88;4.18;;;13.80;99.90;;;;;;5094750;28;20569;-79
2022/04/08 12:18:22;;;;;;;4.77;2.80;;;13.80;99.90;;;;;;5094403;28;20585;-79
2022/04/08 12:20:53;;;;;;;4.30;2.17;;;13.90;99.90;;;;;;5094323;28;20561;-80
2022/04/08 12:23:23;;;;;;;3.50;2.40;;;13.90;99.90;;;;;;5076323;28;20694;-81
2022/04/08 12:25:52;;;;;;;5.35;2.80;;;13.90;99.90;;;;;;5094519;28;20566;-80
2022/04/08 12:28:22;;;;;;;7.22;4.95;;;14.00;99.90;;;;;;5093000;28;20507;-81
2022/04/08 12:30:47;;;;;;;6.20;4.55;;;14.10;99.90;;;;;;5093222;28;20167;-81
2022/04/08 12:33:13;;;;;;;5.40;4.23;;;14.10;99.90;;;;;;5094239;28;20203;-80
2022/04/08 12:35:39;;;;;;;5.57;3.00;;;14.10;99.90;;;;;;5094770;28;20191;-79
2022/04/08 12:38:05;;;;;;;5.27;3.13;;;14.10;99.90;;;;;;5094212;28;20280;-79
2022/04/08 12:40:32;;;;;;;4.80;3.53;;;14.00;99.90;;;;;;5092994;28;20168;-79
2022/04/08 12:42:58;;;;;;;4.33;2.60;;;14.00;99.90;;;;;;5094326;28;20580;-78
2022/04/08 12:45:23;;;;;;;3.20;2.90;;;14.00;99.90;;;;;;5094284;28;20572;-80
2022/04/08 12:47:49;;;;;;;4.10;2.87;;;13.90;99.90;;;;;;5076038;28;20174;-81
2022/04/08 12:50:15;;;;;;;5.20;3.50;;;13.90;99.90;;;;;;5093961;28;20565;-80
2022/04/08 12:52:41;;;;;;;4.63;4.20;;;13.90;99.90;;;;;;5094170;28;20187;-80
2022/04/08 12:55:08;;;;;;;7.13;4.75;;;13.80;99.90;;;;;;5094104;28;20198;-80